sensor_id;sensor_type;location;lat;lon;timestamp;pressure;altitude;pressure_sealevel;temperature;humidity
62164;BME280;48149;51.132;7.178;2023-06-10T00:02:23;98535.50;;;30.12;39.23
62164;BME280;48149;51.132;7.178;2023-06-10T00:04:49;98537.50;;;29.75;40.62
62164;BME280;48149;51.132;7.178;2023-06-10T00:07:14;98538.25;;;30.00;40.54
62164;BME280;48149;51.132;7.178;2023-06-10T00:09:40;98529.16;;;29.92;40.62
62164;BME280;48149;51.132;7.178;2023-06-10T00:12:06;98540.34;;;29.30;41.53
62164;BME280;48149;51.132;7.178;2023-06-10T00:14:38;98530.41;;;29.71;40.88
62164;BME280;48149;51.132;7.178;2023-06-10T00:17:03;98524.78;;;29.03;41.51
62164;BME280;48149;51.132;7.178;2023-06-10T00:19:29;98532.94;;;29.27;42.13
62164;BME280;48149;51.132;7.178;2023-06-10T00:21:58;98530.84;;;29.97;40.69
62164;BME280;48149;51.132;7.178;2023-06-10T00:24:23;98529.63;;;29.82;40.53
62164;BME280;48149;51.132;7.178;2023-06-10T00:26:49;98525.63;;;28.58;43.20
62164;BME280;48149;51.132;7.178;2023-06-10T00:29:14;98530.63;;;29.78;41.02
62164;BME280;48149;51.132;7.178;2023-06-10T00:31:40;98531.75;;;29.77;41.28
62164;BME280;48149;51.132;7.178;2023-06-10T00:34:06;98531.38;;;30.02;40.19
62164;BME280;48149;51.132;7.178;2023-06-10T00:36:32;98534.69;;;29.23;41.31
62164;BME280;48149;51.132;7.178;2023-06-10T00:38:57;98531.44;;;30.18;40.34
62164;BME280;48149;51.132;7.178;2023-06-10T00:41:22;98528.44;;;29.43;41.38
62164;BME280;48149;51.132;7.178;2023-06-10T00:43:48;98527.66;;;29.95;40.47
62164;BME280;48149;51.132;7.178;2023-06-10T00:46:13;98526.19;;;29.45;40.89
62164;BME280;48149;51.132;7.178;2023-06-10T00:48:41;98538.56;;;29.98;40.12
62164;BME280;48149;51.132;7.178;2023-06-10T00:51:07;98528.16;;;28.88;42.46
62164;BME280;48149;51.132;7.178;2023-06-10T00:53:34;98529.47;;;30.03;40.39
62164;BME280;48149;51.132;7.178;2023-06-10T00:55:59;98536.44;;;29.92;40.57
62164;BME280;48149;51.132;7.178;2023-06-10T00:58:25;98527.25;;;29.81;40.46
62164;BME280;48149;51.132;7.178;2023-06-10T01:00:50;98538.28;;;29.63;40.85
62164;BME280;48149;51.132;7.178;2023-06-10T01:03:16;98526.97;;;29.46;41.72
62164;BME280;48149;51.132;7.178;2023-06-10T01:05:42;98539.13;;;29.28;41.46
62164;BME280;48149;51.132;7.178;2023-06-10T01:10:53;98533.47;;;29.08;42.06
62164;BME280;48149;51.132;7.178;2023-06-10T01:13:20;98534.81;;;29.51;41.14
62164;BME280;48149;51.132;7.178;2023-06-10T01:15:48;98536.06;;;30.45;38.79
62164;BME280;48149;51.132;7.178;2023-06-10T01:18:14;98535.59;;;29.88;39.44
62164;BME280;48149;51.132;7.178;2023-06-10T01:20:42;98535.22;;;29.89;39.26
62164;BME280;48149;51.132;7.178;2023-06-10T01:23:08;98524.75;;;29.76;39.11
62164;BME280;48149;51.132;7.178;2023-06-10T01:25:35;98540.00;;;30.36;38.28
62164;BME280;48149;51.132;7.178;2023-06-10T01:30:30;98530.84;;;29.97;39.35
62164;BME280;48149;51.132;7.178;2023-06-10T01:32:58;98536.75;;;30.42;38.77
62164;BME280;48149;51.132;7.178;2023-06-10T01:35:25;98532.06;;;29.99;38.33
62164;BME280;48149;51.132;7.178;2023-06-10T01:37:51;98532.88;;;30.71;37.62
62164;BME280;48149;51.132;7.178;2023-06-10T01:40:18;98532.78;;;29.48;39.86
62164;BME280;48149;51.132;7.178;2023-06-10T01:42:43;98534.06;;;30.58;37.54
62164;BME280;48149;51.132;7.178;2023-06-10T01:45:08;98531.97;;;30.51;37.85
62164;BME280;48149;51.132;7.178;2023-06-10T01:47:34;98530.66;;;30.45;37.35
62164;BME280;48149;51.132;7.178;2023-06-10T01:49:59;98535.13;;;30.13;38.04
62164;BME280;48149;51.132;7.178;2023-06-10T01:52:24;98528.50;;;29.83;38.97
62164;BME280;48149;51.132;7.178;2023-06-10T01:54:50;98536.25;;;30.25;38.06
62164;BME280;48149;51.132;7.178;2023-06-10T01:57:15;98525.81;;;30.11;37.83
62164;BME280;48149;51.132;7.178;2023-06-10T01:59:40;98531.72;;;30.56;37.02
62164;BME280;48149;51.132;7.178;2023-06-10T02:02:09;98535.84;;;30.38;37.35
62164;BME280;48149;51.132;7.178;2023-06-10T02:04:34;98532.50;;;30.29;37.46
62164;BME280;48149;51.132;7.178;2023-06-10T02:06:59;98538.75;;;29.53;38.58
62164;BME280;48149;51.132;7.178;2023-06-10T02:09:29;98534.19;;;30.77;36.53
62164;BME280;48149;51.132;7.178;2023-06-10T02:11:55;98539.31;;;30.51;37.04
62164;BME280;48149;51.132;7.178;2023-06-10T02:14:20;98528.97;;;30.13;37.75
62164;BME280;48149;51.132;7.178;2023-06-10T02:16:45;98534.16;;;29.42;37.80
62164;BME280;48149;51.132;7.178;2023-06-10T02:19:12;98538.94;;;29.73;37.54
62164;BME280;48149;51.132;7.178;2023-06-10T02:21:37;98544.25;;;30.21;36.78
62164;BME280;48149;51.132;7.178;2023-06-10T02:24:02;98544.56;;;29.92;37.55
62164;BME280;48149;51.132;7.178;2023-06-10T02:26:28;98553.41;;;30.04;36.92
62164;BME280;48149;51.132;7.178;2023-06-10T02:28:53;98553.59;;;29.59;37.42
62164;BME280;48149;51.132;7.178;2023-06-10T02:31:18;98550.75;;;29.80;37.44
62164;BME280;48149;51.132;7.178;2023-06-10T02:33:44;98556.47;;;30.03;36.80
62164;BME280;48149;51.132;7.178;2023-06-10T02:36:10;98558.19;;;30.23;36.42
62164;BME280;48149;51.132;7.178;2023-06-10T02:38:38;98555.78;;;30.34;36.25
62164;BME280;48149;51.132;7.178;2023-06-10T02:41:03;98550.94;;;29.99;36.47
62164;BME280;48149;51.132;7.178;2023-06-10T02:43:28;98560.94;;;30.39;35.69
62164;BME280;48149;51.132;7.178;2023-06-10T02:45:54;98552.47;;;29.24;37.31
62164;BME280;48149;51.132;7.178;2023-06-10T02:48:19;98547.06;;;29.12;37.92
62164;BME280;48149;51.132;7.178;2023-06-10T02:50:44;98547.88;;;29.49;36.84
62164;BME280;48149;51.132;7.178;2023-06-10T02:53:10;98547.09;;;29.36;36.28
62164;BME280;48149;51.132;7.178;2023-06-10T02:55:35;98544.34;;;29.85;36.26
62164;BME280;48149;51.132;7.178;2023-06-10T02:58:00;98545.91;;;29.74;35.99
62164;BME280;48149;51.132;7.178;2023-06-10T03:00:25;98544.25;;;30.21;35.30
62164;BME280;48149;51.132;7.178;2023-06-10T03:02:51;98544.38;;;29.36;36.22
62164;BME280;48149;51.132;7.178;2023-06-10T03:05:16;98548.63;;;29.86;35.83
62164;BME280;48149;51.132;7.178;2023-06-10T03:07:42;98543.09;;;29.70;35.43
62164;BME280;48149;51.132;7.178;2023-06-10T03:10:07;98545.69;;;29.67;35.84
62164;BME280;48149;51.132;7.178;2023-06-10T03:12:32;98545.50;;;29.47;35.43
62164;BME280;48149;51.132;7.178;2023-06-10T03:14:59;98545.84;;;29.34;35.60
62164;BME280;48149;51.132;7.178;2023-06-10T03:17:24;98553.69;;;29.87;34.97
62164;BME280;48149;51.132;7.178;2023-06-10T03:19:50;98545.06;;;29.33;35.55
62164;BME280;48149;51.132;7.178;2023-06-10T03:22:16;98550.78;;;29.44;35.35
62164;BME280;48149;51.132;7.178;2023-06-10T03:24:41;98544.16;;;29.41;35.66
62164;BME280;48149;51.132;7.178;2023-06-10T03:27:08;98548.88;;;29.32;35.12
62164;BME280;48149;51.132;7.178;2023-06-10T03:29:34;98551.22;;;29.58;34.73
62164;BME280;48149;51.132;7.178;2023-06-10T03:32:00;98547.59;;;29.90;34.25
62164;BME280;48149;51.132;7.178;2023-06-10T03:34:25;98556.81;;;29.77;34.00
62164;BME280;48149;51.132;7.178;2023-06-10T03:36:50;98557.50;;;29.74;34.16
62164;BME280;48149;51.132;7.178;2023-06-10T03:39:15;98559.44;;;29.61;34.14
62164;BME280;48149;51.132;7.178;2023-06-10T03:41:41;98554.81;;;29.62;33.96
62164;BME280;48149;51.132;7.178;2023-06-10T03:44:06;98553.78;;;29.91;33.83
62164;BME280;48149;51.132;7.178;2023-06-10T03:46:31;98554.44;;;30.40;33.23
62164;BME280;48149;51.132;7.178;2023-06-10T03:48:56;98559.75;;;29.60;34.25
62164;BME280;48149;51.132;7.178;2023-06-10T03:51:25;98560.41;;;29.93;33.75
62164;BME280;48149;51.132;7.178;2023-06-10T03:53:50;98562.78;;;29.83;33.58
62164;BME280;48149;51.132;7.178;2023-06-10T03:56:15;98556.13;;;29.80;33.69
62164;BME280;48149;51.132;7.178;2023-06-10T03:58:40;98556.91;;;28.96;34.70
62164;BME280;48149;51.132;7.178;2023-06-10T04:01:06;98562.66;;;29.79;33.78
62164;BME280;48149;51.132;7.178;2023-06-10T04:03:32;98558.19;;;29.59;34.28
62164;BME280;48149;51.132;7.178;2023-06-10T04:05:58;98558.25;;;30.66;32.22
62164;BME280;48149;51.132;7.178;2023-06-10T04:08:23;98552.78;;;31.41;31.31
62164;BME280;48149;51.132;7.178;2023-06-10T04:10:48;98561.22;;;30.77;31.82
62164;BME280;48149;51.132;7.178;2023-06-10T04:13:13;98562.41;;;31.23;31.70
62164;BME280;48149;51.132;7.178;2023-06-10T04:15:40;98559.44;;;29.49;33.36
62164;BME280;48149;51.132;7.178;2023-06-10T04:18:06;98572.81;;;30.78;31.70
62164;BME280;48149;51.132;7.178;2023-06-10T04:20:31;98563.22;;;30.80;31.33
62164;BME280;48149;51.132;7.178;2023-06-10T04:22:56;98566.31;;;31.41;30.89
62164;BME280;48149;51.132;7.178;2023-06-10T04:25:22;98570.44;;;31.51;30.76
62164;BME280;48149;51.132;7.178;2023-06-10T04:27:47;98571.78;;;31.76;30.41
62164;BME280;48149;51.132;7.178;2023-06-10T04:30:12;98573.84;;;31.01;31.21
62164;BME280;48149;51.132;7.178;2023-06-10T04:32:38;98569.13;;;30.98;31.88
62164;BME280;48149;51.132;7.178;2023-06-10T04:35:03;98577.25;;;30.98;31.40
62164;BME280;48149;51.132;7.178;2023-06-10T04:37:28;98575.47;;;32.22;30.44
62164;BME280;48149;51.132;7.178;2023-06-10T04:39:54;98583.25;;;31.54;30.74
62164;BME280;48149;51.132;7.178;2023-06-10T04:42:19;98583.25;;;31.38;31.10
62164;BME280;48149;51.132;7.178;2023-06-10T04:44:44;98584.06;;;31.07;31.50
62164;BME280;48149;51.132;7.178;2023-06-10T04:47:09;98573.97;;;31.39;31.47
62164;BME280;48149;51.132;7.178;2023-06-10T04:49:35;98577.34;;;32.18;30.85
62164;BME280;48149;51.132;7.178;2023-06-10T04:52:00;98578.28;;;32.26;30.60
62164;BME280;48149;51.132;7.178;2023-06-10T04:54:26;98573.84;;;32.17;30.67
62164;BME280;48149;51.132;7.178;2023-06-10T04:56:51;98579.94;;;31.95;30.87
62164;BME280;48149;51.132;7.178;2023-06-10T04:59:16;98578.84;;;32.00;30.21
62164;BME280;48149;51.132;7.178;2023-06-10T05:01:41;98578.41;;;31.79;31.32
62164;BME280;48149;51.132;7.178;2023-06-10T05:04:06;98575.31;;;31.14;32.10
62164;BME280;48149;51.132;7.178;2023-06-10T05:06:31;98571.38;;;31.27;32.08
62164;BME280;48149;51.132;7.178;2023-06-10T05:08:57;98572.06;;;31.55;31.55
62164;BME280;48149;51.132;7.178;2023-06-10T05:11:22;98581.78;;;31.56;31.48
62164;BME280;48149;51.132;7.178;2023-06-10T05:13:47;98584.66;;;31.98;31.08
62164;BME280;48149;51.132;7.178;2023-06-10T05:16:13;98579.69;;;31.50;32.09
62164;BME280;48149;51.132;7.178;2023-06-10T05:18:40;98575.94;;;31.54;32.07
62164;BME280;48149;51.132;7.178;2023-06-10T05:21:05;98573.94;;;31.04;32.75
62164;BME280;48149;51.132;7.178;2023-06-10T05:23:31;98578.97;;;31.06;33.19
62164;BME280;48149;51.132;7.178;2023-06-10T05:25:56;98576.53;;;32.56;31.19
62164;BME280;48149;51.132;7.178;2023-06-10T05:28:21;98583.25;;;31.38;32.51
62164;BME280;48149;51.132;7.178;2023-06-10T05:30:47;98577.53;;;32.09;32.18
62164;BME280;48149;51.132;7.178;2023-06-10T05:33:12;98576.06;;;32.31;31.36
62164;BME280;48149;51.132;7.178;2023-06-10T05:35:37;98585.50;;;31.05;33.09
62164;BME280;48149;51.132;7.178;2023-06-10T05:38:02;98575.56;;;30.50;33.92
62164;BME280;48149;51.132;7.178;2023-06-10T05:40:27;98581.28;;;32.59;31.39
62164;BME280;48149;51.132;7.178;2023-06-10T05:42:53;98583.84;;;32.71;31.79
62164;BME280;48149;51.132;7.178;2023-06-10T05:45:18;98580.19;;;32.06;32.07
62164;BME280;48149;51.132;7.178;2023-06-10T05:47:43;98583.44;;;32.53;31.11
62164;BME280;48149;51.132;7.178;2023-06-10T05:50:09;98590.97;;;33.02;31.49
62164;BME280;48149;51.132;7.178;2023-06-10T05:52:35;98591.31;;;32.78;31.95
62164;BME280;48149;51.132;7.178;2023-06-10T05:55:01;98588.16;;;32.37;32.26
62164;BME280;48149;51.132;7.178;2023-06-10T05:57:26;98591.72;;;33.70;31.00
62164;BME280;48149;51.132;7.178;2023-06-10T05:59:51;98586.31;;;32.22;32.61
62164;BME280;48149;51.132;7.178;2023-06-10T06:02:16;98586.63;;;32.17;32.25
62164;BME280;48149;51.132;7.178;2023-06-10T06:04:42;98579.28;;;31.83;33.31
62164;BME280;48149;51.132;7.178;2023-06-10T06:07:07;98588.75;;;31.57;33.91
62164;BME280;48149;51.132;7.178;2023-06-10T06:09:32;98589.31;;;32.55;32.28
62164;BME280;48149;51.132;7.178;2023-06-10T06:11:57;98590.91;;;31.36;34.02
62164;BME280;48149;51.132;7.178;2023-06-10T06:14:23;98591.09;;;31.28;34.00
62164;BME280;48149;51.132;7.178;2023-06-10T06:16:48;98584.91;;;33.08;32.11
62164;BME280;48149;51.132;7.178;2023-06-10T06:19:13;98583.78;;;31.59;33.95
62164;BME280;48149;51.132;7.178;2023-06-10T06:21:39;98587.09;;;32.42;32.83
62164;BME280;48149;51.132;7.178;2023-06-10T06:24:04;98600.88;;;32.52;32.61
62164;BME280;48149;51.132;7.178;2023-06-10T06:26:29;98590.88;;;32.37;33.15
62164;BME280;48149;51.132;7.178;2023-06-10T06:28:54;98591.25;;;33.65;31.83
62164;BME280;48149;51.132;7.178;2023-06-10T06:31:20;98596.94;;;32.50;33.28
62164;BME280;48149;51.132;7.178;2023-06-10T06:33:45;98591.81;;;33.28;32.80
62164;BME280;48149;51.132;7.178;2023-06-10T06:36:10;98594.75;;;33.43;32.05
62164;BME280;48149;51.132;7.178;2023-06-10T06:38:35;98595.88;;;34.17;31.29
62164;BME280;48149;51.132;7.178;2023-06-10T06:41:01;98599.56;;;34.05;31.63
62164;BME280;48149;51.132;7.178;2023-06-10T06:43:28;98599.06;;;33.21;32.97
62164;BME280;48149;51.132;7.178;2023-06-10T06:45:54;98602.13;;;33.65;32.92
62164;BME280;48149;51.132;7.178;2023-06-10T06:48:20;98599.03;;;32.18;33.88
62164;BME280;48149;51.132;7.178;2023-06-10T06:50:45;98604.09;;;33.94;31.89
62164;BME280;48149;51.132;7.178;2023-06-10T06:53:11;98595.75;;;33.31;32.42
62164;BME280;48149;51.132;7.178;2023-06-10T06:55:36;98604.78;;;33.88;31.56
62164;BME280;48149;51.132;7.178;2023-06-10T06:58:02;98607.16;;;34.52;30.68
62164;BME280;48149;51.132;7.178;2023-06-10T07:00:28;98604.22;;;33.75;31.99
62164;BME280;48149;51.132;7.178;2023-06-10T07:02:54;98619.94;;;32.98;33.08
62164;BME280;48149;51.132;7.178;2023-06-10T07:05:20;98621.38;;;34.68;30.73
62164;BME280;48149;51.132;7.178;2023-06-10T07:07:45;98618.56;;;34.61;30.60
62164;BME280;48149;51.132;7.178;2023-06-10T07:10:10;98616.22;;;34.30;30.89
62164;BME280;48149;51.132;7.178;2023-06-10T07:12:36;98621.72;;;34.63;30.94
62164;BME280;48149;51.132;7.178;2023-06-10T07:15:01;98610.44;;;33.75;31.77
62164;BME280;48149;51.132;7.178;2023-06-10T07:17:26;98615.94;;;35.09;30.23
62164;BME280;48149;51.132;7.178;2023-06-10T07:19:52;98619.59;;;34.87;30.83
62164;BME280;48149;51.132;7.178;2023-06-10T07:22:17;98611.91;;;35.32;29.42
62164;BME280;48149;51.132;7.178;2023-06-10T07:24:42;98622.53;;;34.38;30.49
62164;BME280;48149;51.132;7.178;2023-06-10T07:27:08;98619.88;;;35.11;29.93
62164;BME280;48149;51.132;7.178;2023-06-10T07:29:35;98616.97;;;35.85;30.00
62164;BME280;48149;51.132;7.178;2023-06-10T07:32:01;98614.25;;;34.94;30.69
62164;BME280;48149;51.132;7.178;2023-06-10T07:34:26;98617.53;;;36.15;29.25
62164;BME280;48149;51.132;7.178;2023-06-10T07:36:51;98616.06;;;34.49;31.39
62164;BME280;48149;51.132;7.178;2023-06-10T07:39:16;98616.84;;;34.50;30.96
62164;BME280;48149;51.132;7.178;2023-06-10T07:41:41;98614.78;;;36.08;29.94
62164;BME280;48149;51.132;7.178;2023-06-10T07:44:07;98616.16;;;35.30;30.01
62164;BME280;48149;51.132;7.178;2023-06-10T07:46:32;98610.81;;;35.95;28.94
62164;BME280;48149;51.132;7.178;2023-06-10T07:48:57;98616.25;;;35.44;29.32
62164;BME280;48149;51.132;7.178;2023-06-10T07:51:22;98611.44;;;36.40;28.66
62164;BME280;48149;51.132;7.178;2023-06-10T07:53:48;98608.13;;;37.20;27.56
62164;BME280;48149;51.132;7.178;2023-06-10T07:56:13;98616.22;;;34.97;30.39
62164;BME280;48149;51.132;7.178;2023-06-10T07:58:38;98621.28;;;36.69;28.42
62164;BME280;48149;51.132;7.178;2023-06-10T08:01:03;98614.41;;;35.55;29.38
62164;BME280;48149;51.132;7.178;2023-06-10T08:03:29;98617.16;;;36.17;28.55
62164;BME280;48149;51.132;7.178;2023-06-10T08:05:54;98605.56;;;35.69;29.20
62164;BME280;48149;51.132;7.178;2023-06-10T08:08:19;98616.13;;;36.43;28.29
62164;BME280;48149;51.132;7.178;2023-06-10T08:10:44;98619.31;;;38.25;26.50
62164;BME280;48149;51.132;7.178;2023-06-10T08:13:09;98625.47;;;36.45;27.66
62164;BME280;48149;51.132;7.178;2023-06-10T08:15:35;98620.19;;;37.97;26.71
62164;BME280;48149;51.132;7.178;2023-06-10T08:18:00;98621.34;;;38.07;26.59
62164;BME280;48149;51.132;7.178;2023-06-10T08:20:25;98623.84;;;38.70;25.33
62164;BME280;48149;51.132;7.178;2023-06-10T08:22:50;98612.69;;;36.63;26.66
62164;BME280;48149;51.132;7.178;2023-06-10T08:25:16;98615.81;;;36.62;27.48
62164;BME280;48149;51.132;7.178;2023-06-10T08:27:41;98623.72;;;37.98;26.85
62164;BME280;48149;51.132;7.178;2023-06-10T08:30:06;98626.47;;;37.90;27.23
62164;BME280;48149;51.132;7.178;2023-06-10T08:32:32;98618.66;;;37.32;26.32
62164;BME280;48149;51.132;7.178;2023-06-10T08:34:58;98621.72;;;36.92;26.88
62164;BME280;48149;51.132;7.178;2023-06-10T08:37:23;98617.09;;;37.70;26.75
62164;BME280;48149;51.132;7.178;2023-06-10T08:39:49;98617.97;;;38.68;25.14
62164;BME280;48149;51.132;7.178;2023-06-10T08:42:21;98620.38;;;39.21;25.48
62164;BME280;48149;51.132;7.178;2023-06-10T08:44:47;98624.94;;;39.42;25.35
62164;BME280;48149;51.132;7.178;2023-06-10T08:47:15;98627.44;;;40.08;23.24
62164;BME280;48149;51.132;7.178;2023-06-10T08:49:41;98625.25;;;38.96;24.65
62164;BME280;48149;51.132;7.178;2023-06-10T08:52:07;98623.22;;;38.38;25.91
62164;BME280;48149;51.132;7.178;2023-06-10T08:54:34;98620.25;;;40.51;23.79
62164;BME280;48149;51.132;7.178;2023-06-10T08:57:03;98622.78;;;40.99;23.05
62164;BME280;48149;51.132;7.178;2023-06-10T08:59:30;98624.34;;;39.68;23.60
62164;BME280;48149;51.132;7.178;2023-06-10T09:01:56;98626.19;;;38.68;24.46
62164;BME280;48149;51.132;7.178;2023-06-10T09:04:21;98616.84;;;40.10;23.42
62164;BME280;48149;51.132;7.178;2023-06-10T09:06:49;98614.06;;;38.69;23.47
62164;BME280;48149;51.132;7.178;2023-06-10T09:09:14;98615.78;;;38.31;22.84
62164;BME280;48149;51.132;7.178;2023-06-10T09:11:40;98617.09;;;37.84;24.43
62164;BME280;48149;51.132;7.178;2023-06-10T09:14:06;98620.13;;;39.05;23.35
62164;BME280;48149;51.132;7.178;2023-06-10T09:16:32;98620.88;;;38.29;23.35
62164;BME280;48149;51.132;7.178;2023-06-10T09:18:57;98618.06;;;39.23;22.61
62164;BME280;48149;51.132;7.178;2023-06-10T09:21:24;98619.91;;;41.29;21.58
62164;BME280;48149;51.132;7.178;2023-06-10T09:23:49;98605.28;;;38.26;24.43
62164;BME280;48149;51.132;7.178;2023-06-10T09:26:15;98612.41;;;37.14;24.60
62164;BME280;48149;51.132;7.178;2023-06-10T09:28:47;98615.50;;;38.01;22.37
62164;BME280;48149;51.132;7.178;2023-06-10T09:31:13;98617.88;;;39.44;22.21
62164;BME280;48149;51.132;7.178;2023-06-10T09:33:39;98621.50;;;39.31;21.90
62164;BME280;48149;51.132;7.178;2023-06-10T09:36:04;98618.44;;;40.71;19.90
62164;BME280;48149;51.132;7.178;2023-06-10T09:38:30;98616.47;;;39.26;22.04
62164;BME280;48149;51.132;7.178;2023-06-10T09:40:56;98617.34;;;39.97;21.94
62164;BME280;48149;51.132;7.178;2023-06-10T09:43:22;98613.03;;;39.59;21.83
62164;BME280;48149;51.132;7.178;2023-06-10T09:45:48;98618.50;;;39.59;21.52
62164;BME280;48149;51.132;7.178;2023-06-10T09:48:13;98607.28;;;41.12;21.40
62164;BME280;48149;51.132;7.178;2023-06-10T09:50:42;98607.44;;;41.94;20.79
62164;BME280;48149;51.132;7.178;2023-06-10T09:53:08;98609.97;;;39.91;21.68
62164;BME280;48149;51.132;7.178;2023-06-10T09:55:33;98610.53;;;39.75;21.15
62164;BME280;48149;51.132;7.178;2023-06-10T09:57:59;98608.03;;;39.51;20.81
62164;BME280;48149;51.132;7.178;2023-06-10T10:00:25;98609.28;;;40.51;21.08
62164;BME280;48149;51.132;7.178;2023-06-10T10:02:51;98608.78;;;39.00;22.04
62164;BME280;48149;51.132;7.178;2023-06-10T10:05:17;98603.22;;;40.03;21.12
62164;BME280;48149;51.132;7.178;2023-06-10T10:07:43;98597.16;;;37.84;22.51
62164;BME280;48149;51.132;7.178;2023-06-10T10:10:09;98608.75;;;40.63;21.18
62164;BME280;48149;51.132;7.178;2023-06-10T10:12:35;98613.66;;;41.06;20.47
62164;BME280;48149;51.132;7.178;2023-06-10T10:15:01;98610.97;;;44.53;18.44
62164;BME280;48149;51.132;7.178;2023-06-10T10:17:27;98602.53;;;43.90;18.74
62164;BME280;48149;51.132;7.178;2023-06-10T10:19:53;98607.69;;;43.11;18.50
62164;BME280;48149;51.132;7.178;2023-06-10T10:22:24;98605.56;;;42.47;18.99
62164;BME280;48149;51.132;7.178;2023-06-10T10:24:51;98601.66;;;45.83;16.08
62164;BME280;48149;51.132;7.178;2023-06-10T10:27:18;98608.06;;;44.44;16.67
62164;BME280;48149;51.132;7.178;2023-06-10T10:29:46;98609.84;;;43.52;17.65
62164;BME280;48149;51.132;7.178;2023-06-10T10:32:12;98601.47;;;45.65;16.59
62164;BME280;48149;51.132;7.178;2023-06-10T10:34:49;98592.22;;;45.80;16.78
62164;BME280;48149;51.132;7.178;2023-06-10T10:37:19;98596.16;;;49.41;14.33
62164;BME280;48149;51.132;7.178;2023-06-10T10:39:45;98588.28;;;47.04;15.09
62164;BME280;48149;51.132;7.178;2023-06-10T10:42:10;98592.00;;;42.92;18.35
62164;BME280;48149;51.132;7.178;2023-06-10T10:44:37;98597.41;;;46.13;17.99
62164;BME280;48149;51.132;7.178;2023-06-10T10:47:03;98594.09;;;46.88;17.08
62164;BME280;48149;51.132;7.178;2023-06-10T10:49:31;98598.84;;;48.28;16.99
62164;BME280;48149;51.132;7.178;2023-06-10T10:51:57;98599.59;;;48.70;16.54
62164;BME280;48149;51.132;7.178;2023-06-10T10:54:28;98607.63;;;48.26;16.83
62164;BME280;48149;51.132;7.178;2023-06-10T11:02:18;98601.97;;;48.62;15.82
62164;BME280;48149;51.132;7.178;2023-06-10T11:04:46;98586.06;;;48.03;14.95
62164;BME280;48149;51.132;7.178;2023-06-10T11:07:12;98587.09;;;49.07;14.83
62164;BME280;48149;51.132;7.178;2023-06-10T11:09:56;98590.78;;;46.41;17.76
62164;BME280;48149;51.132;7.178;2023-06-10T11:12:22;98592.44;;;43.23;20.23
62164;BME280;48149;51.132;7.178;2023-06-10T11:14:53;98585.06;;;42.32;21.67
62164;BME280;48149;51.132;7.178;2023-06-10T11:17:18;98582.22;;;42.16;22.00
62164;BME280;48149;51.132;7.178;2023-06-10T11:19:45;98582.78;;;41.21;22.13
62164;BME280;48149;51.132;7.178;2023-06-10T11:22:15;98585.03;;;41.73;22.47
62164;BME280;48149;51.132;7.178;2023-06-10T11:24:41;98582.44;;;40.92;23.71
62164;BME280;48149;51.132;7.178;2023-06-10T11:27:16;98583.63;;;40.65;24.65
62164;BME280;48149;51.132;7.178;2023-06-10T11:29:57;98580.75;;;40.75;25.10
62164;BME280;48149;51.132;7.178;2023-06-10T11:32:24;98585.19;;;40.35;25.04
62164;BME280;48149;51.132;7.178;2023-06-10T11:34:53;98580.22;;;39.52;26.34
62164;BME280;48149;51.132;7.178;2023-06-10T11:37:19;98572.09;;;39.82;25.31
62164;BME280;48149;51.132;7.178;2023-06-10T11:39:44;98585.41;;;40.78;24.27
62164;BME280;48149;51.132;7.178;2023-06-10T11:42:10;98574.47;;;40.44;25.36
62164;BME280;48149;51.132;7.178;2023-06-10T11:44:35;98579.72;;;39.16;27.36
62164;BME280;48149;51.132;7.178;2023-06-10T11:47:02;98579.63;;;40.09;26.64
62164;BME280;48149;51.132;7.178;2023-06-10T11:49:28;98571.28;;;40.53;26.41
62164;BME280;48149;51.132;7.178;2023-06-10T11:51:53;98572.19;;;39.31;28.08
62164;BME280;48149;51.132;7.178;2023-06-10T11:54:18;98566.28;;;40.98;26.14
62164;BME280;48149;51.132;7.178;2023-06-10T11:56:44;98566.91;;;41.75;24.91
62164;BME280;48149;51.132;7.178;2023-06-10T11:59:09;98578.25;;;43.24;25.24
62164;BME280;48149;51.132;7.178;2023-06-10T12:01:35;98575.34;;;41.88;24.64
62164;BME280;48149;51.132;7.178;2023-06-10T12:04:08;98567.38;;;42.33;24.97
62164;BME280;48149;51.132;7.178;2023-06-10T12:06:38;98566.31;;;44.17;22.91
62164;BME280;48149;51.132;7.178;2023-06-10T12:09:03;98562.56;;;44.24;23.18
62164;BME280;48149;51.132;7.178;2023-06-10T12:11:29;98565.59;;;44.54;20.64
62164;BME280;48149;51.132;7.178;2023-06-10T12:13:54;98558.34;;;45.89;20.06
62164;BME280;48149;51.132;7.178;2023-06-10T12:16:19;98562.00;;;48.60;17.36
62164;BME280;48149;51.132;7.178;2023-06-10T12:18:44;98557.63;;;48.26;16.93
62164;BME280;48149;51.132;7.178;2023-06-10T12:21:17;98556.31;;;47.22;17.40
62164;BME280;48149;51.132;7.178;2023-06-10T12:27:00;98557.84;;;48.88;16.65
62164;BME280;48149;51.132;7.178;2023-06-10T12:29:19;98548.00;;;45.46;17.98
62164;BME280;48149;51.132;7.178;2023-06-10T12:31:55;98555.09;;;48.46;16.68
62164;BME280;48149;51.132;7.178;2023-06-10T12:34:27;98540.28;;;47.89;17.37
62164;BME280;48149;51.132;7.178;2023-06-10T12:36:52;98537.66;;;47.22;17.92
62164;BME280;48149;51.132;7.178;2023-06-10T12:39:18;98550.03;;;48.78;16.28
62164;BME280;48149;51.132;7.178;2023-06-10T12:41:49;98544.13;;;50.29;15.65
62164;BME280;48149;51.132;7.178;2023-06-10T12:44:16;98544.75;;;49.51;15.55
62164;BME280;48149;51.132;7.178;2023-06-10T12:46:41;98536.28;;;49.98;16.00
62164;BME280;48149;51.132;7.178;2023-06-10T12:49:06;98534.56;;;50.85;16.14
62164;BME280;48149;51.132;7.178;2023-06-10T12:51:32;98544.72;;;45.73;18.32
62164;BME280;48149;51.132;7.178;2023-06-10T12:53:59;98529.94;;;45.54;18.82
62164;BME280;48149;51.132;7.178;2023-06-10T12:56:24;98536.19;;;44.48;19.31
62164;BME280;48149;51.132;7.178;2023-06-10T12:58:49;98538.81;;;44.51;19.07
62164;BME280;48149;51.132;7.178;2023-06-10T13:01:15;98536.47;;;45.82;18.61
62164;BME280;48149;51.132;7.178;2023-06-10T13:03:40;98537.22;;;44.00;18.99
62164;BME280;48149;51.132;7.178;2023-06-10T13:06:05;98537.47;;;47.07;17.89
62164;BME280;48149;51.132;7.178;2023-06-10T13:08:31;98538.09;;;46.93;16.61